Time;durP1;ratioP1;P1;durP2;ratioP2;P2;SDS_P1;SDS_P2;PMS_P1;PMS_P2;Temp;Humidity;BMP_temperature;BMP_pressure;BME280_temperature;BME280_humidity;BME280_pressure;Samples;Min_cycle;Max_cycle;Signal;HPM_P1;HPM_P2
2023/01/20 00:01:55;;;;;;;35.07;20.40;;;2.40;99.90;;;;;;5002979;28;20170;-84
2023/01/20 00:04:23;;;;;;;38.70;21.70;;;2.50;99.90;;;;;;5003057;28;20193;-83
2023/01/20 00:06:49;;;;;;;40.10;23.67;;;2.60;99.90;;;;;;5002196;28;20222;-85
2023/01/20 00:09:21;;;;;;;43.73;22.93;;;2.60;99.90;;;;;;4982788;28;20171;-82
2023/01/20 00:11:46;;;;;;;39.53;22.00;;;2.50;99.90;;;;;;4981971;28;20631;-84
2023/01/20 00:14:12;;;;;;;42.43;23.60;;;2.50;99.90;;;;;;4982233;28;20171;-84
2023/01/20 00:16:40;;;;;;;42.80;22.87;;;2.50;99.90;;;;;;4979941;28;20185;-85
2023/01/20 00:19:06;;;;;;;44.10;24.23;;;2.50;99.90;;;;;;4996838;28;20179;-83
2023/01/20 00:21:35;;;;;;;42.63;23.53;;;2.40;99.90;;;;;;4978829;28;20171;-85
2023/01/20 00:24:03;;;;;;;42.23;21.73;;;2.50;99.90;;;;;;4997532;28;20183;-85
2023/01/20 00:26:40;;;;;;;40.30;22.87;;;2.30;99.90;;;;;;4980197;28;20214;-83
2023/01/20 00:29:08;;;;;;;43.93;22.40;;;2.20;99.90;;;;;;4978305;28;20178;-84
2023/01/20 00:31:35;;;;;;;41.93;23.40;;;2.30;99.90;;;;;;5000469;28;20155;-83
2023/01/20 00:34:01;;;;;;;41.63;23.03;;;2.20;99.90;;;;;;4995650;28;20182;-82
2023/01/20 00:36:32;;;;;;;46.53;24.40;;;2.30;99.90;;;;;;5001870;28;20164;-85
2023/01/20 00:39:01;;;;;;;48.53;23.80;;;2.30;99.90;;;;;;5018866;28;20182;-84
2023/01/20 00:41:29;;;;;;;48.17;23.67;;;2.30;99.90;;;;;;4995612;28;20245;-83
2023/01/20 00:43:54;;;;;;;43.80;24.03;;;2.30;99.90;;;;;;4965700;28;20199;-82
2023/01/20 00:46:21;;;;;;;43.50;23.83;;;2.40;99.90;;;;;;4994587;28;20211;-83
2023/01/20 00:48:47;;;;;;;49.27;25.53;;;2.20;99.90;;;;;;4986524;28;20229;-82
2023/01/20 00:51:15;;;;;;;48.40;25.77;;;2.40;99.90;;;;;;4966417;28;20725;-84
2023/01/20 00:53:41;;;;;;;45.07;22.50;;;2.20;99.90;;;;;;4980953;28;20258;-86
2023/01/20 00:56:07;;;;;;;42.90;21.67;;;2.10;99.90;;;;;;4976266;28;20281;-85
2023/01/20 00:58:33;;;;;;;49.53;24.70;;;2.20;99.90;;;;;;4958280;28;20246;-85
2023/01/20 01:00:59;;;;;;;46.80;23.47;;;2.00;99.90;;;;;;4957897;28;20238;-86
2023/01/20 01:03:28;;;;;;;42.47;23.23;;;2.00;99.90;;;;;;4958030;28;20207;-85
2023/01/20 01:06:08;;;;;;;47.17;23.17;;;2.10;99.90;;;;;;4958881;28;20211;-84
2023/01/20 01:08:34;;;;;;;45.80;23.77;;;2.00;99.90;;;;;;4959303;28;20254;-85
2023/01/20 01:11:00;;;;;;;46.93;22.63;;;2.00;99.90;;;;;;4942799;28;20187;-84
2023/01/20 01:13:25;;;;;;;44.20;22.63;;;2.10;99.90;;;;;;4975496;28;20247;-83
2023/01/20 01:15:52;;;;;;;40.27;21.70;;;2.20;99.90;;;;;;4977170;28;20704;-86
2023/01/20 01:18:18;;;;;;;42.80;22.23;;;2.10;99.90;;;;;;4957686;28;20214;-84
2023/01/20 01:20:44;;;;;;;38.27;21.47;;;2.10;99.90;;;;;;4958875;28;20656;-84
2023/01/20 01:23:11;;;;;;;39.40;20.40;;;2.00;99.90;;;;;;4976005;28;20198;-85
2023/01/20 01:25:37;;;;;;;46.30;22.63;;;2.00;99.90;;;;;;4958449;28;20247;-84
2023/01/20 01:28:04;;;;;;;44.50;21.80;;;2.00;99.90;;;;;;4958679;28;20192;-84
2023/01/20 01:30:30;;;;;;;41.03;21.37;;;2.10;99.90;;;;;;4967520;28;20183;-84
2023/01/20 01:32:55;;;;;;;45.50;21.43;;;2.00;99.90;;;;;;4977236;28;20245;-83
2023/01/20 01:35:21;;;;;;;47.10;21.73;;;1.90;99.90;;;;;;4969197;28;20678;-84
2023/01/20 01:37:50;;;;;;;38.20;21.47;;;2.00;99.90;;;;;;4981710;28;20168;-84
2023/01/20 01:40:19;;;;;;;42.73;22.33;;;1.90;99.90;;;;;;4984140;28;20164;-85
2023/01/20 01:42:45;;;;;;;39.10;21.77;;;1.90;99.90;;;;;;4959181;28;20226;-85
2023/01/20 01:45:11;;;;;;;44.47;22.13;;;2.00;99.90;;;;;;4962265;28;20191;-84
2023/01/20 01:48:03;;;;;;;40.50;22.27;;;2.00;99.90;;;;;;4982440;28;20234;-83
2023/01/20 01:50:38;;;;;;;39.53;20.43;;;2.10;99.90;;;;;;4991757;28;20175;-84
2023/01/20 01:53:08;;;;;;;43.27;22.37;;;2.00;99.90;;;;;;4978511;28;20233;-84
2023/01/20 01:55:37;;;;;;;41.53;21.43;;;2.00;99.90;;;;;;4968959;28;20204;-86
2023/01/20 01:58:15;;;;;;;43.70;23.07;;;2.10;99.90;;;;;;4962197;28;20266;-84
2023/01/20 02:00:43;;;;;;;44.03;20.27;;;2.00;99.90;;;;;;4962433;28;20562;-84
2023/01/20 02:03:09;;;;;;;40.90;21.53;;;1.90;99.90;;;;;;4957786;28;20176;-86
2023/01/20 02:05:37;;;;;;;44.57;24.37;;;2.00;99.90;;;;;;4958939;28;20222;-87
2023/01/20 02:08:04;;;;;;;42.87;22.87;;;2.10;99.90;;;;;;4986444;28;20179;-85
2023/01/20 02:10:30;;;;;;;38.13;20.87;;;2.20;99.90;;;;;;4995920;28;20182;-85
2023/01/20 02:12:56;;;;;;;43.60;22.87;;;2.10;99.90;;;;;;4980450;28;20580;-86
2023/01/20 02:15:27;;;;;;;38.50;21.00;;;2.10;99.90;;;;;;4978865;28;20603;-85
2023/01/20 02:18:26;;;;;;;38.97;20.77;;;2.00;99.90;;;;;;4984721;28;20178;-83
2023/01/20 02:21:29;;;;;;;40.17;20.47;;;2.10;99.90;;;;;;4990173;28;20182;-83
2023/01/20 02:24:11;;;;;;;42.63;20.50;;;2.40;99.90;;;;;;4983217;28;20197;-85
2023/01/20 02:26:47;;;;;;;40.77;21.30;;;2.20;99.90;;;;;;4980816;28;20206;-84
2023/01/20 02:29:52;;;;;;;42.13;20.93;;;2.30;99.90;;;;;;4997484;28;20213;-84
2023/01/20 02:32:41;;;;;;;41.47;20.93;;;2.20;99.90;;;;;;4981591;28;20171;-83
2023/01/20 02:35:20;;;;;;;36.63;20.63;;;2.00;99.90;;;;;;4981408;28;20190;-83
2023/01/20 02:37:53;;;;;;;41.10;21.03;;;2.00;99.90;;;;;;4999401;28;20573;-84
2023/01/20 02:40:53;;;;;;;39.97;21.50;;;2.10;99.90;;;;;;4988058;28;20175;-85
2023/01/20 02:43:27;;;;;;;39.30;21.43;;;2.20;99.90;;;;;;5008682;28;20180;-83
2023/01/20 02:46:07;;;;;;;41.60;22.73;;;2.30;99.90;;;;;;4980148;28;20214;-84
2023/01/20 02:49:08;;;;;;;40.07;22.17;;;2.30;99.90;;;;;;4979514;28;20214;-83
2023/01/20 02:51:44;;;;;;;36.23;21.00;;;2.20;99.90;;;;;;4979910;28;20175;-84
2023/01/20 02:54:14;;;;;;;40.43;20.37;;;2.10;99.90;;;;;;4997850;28;20544;-84
2023/01/20 02:56:39;;;;;;;36.90;20.03;;;2.10;99.90;;;;;;4980499;28;20209;-83
2023/01/20 02:59:14;;;;;;;35.13;19.73;;;2.00;99.90;;;;;;4981491;28;20635;-84
2023/01/20 03:02:03;;;;;;;39.20;22.13;;;1.90;99.90;;;;;;4993285;28;20178;-83
2023/01/20 03:04:37;;;;;;;39.20;21.73;;;2.00;99.90;;;;;;5001416;28;20179;-83
2023/01/20 03:07:04;;;;;;;38.10;20.30;;;2.00;99.90;;;;;;5004304;28;20219;-83
2023/01/20 03:09:38;;;;;;;40.57;20.77;;;1.90;99.90;;;;;;4992994;28;20186;-84
2023/01/20 03:12:17;;;;;;;38.20;21.83;;;1.90;99.90;;;;;;4984132;28;20170;-85
2023/01/20 03:14:43;;;;;;;37.83;21.13;;;1.90;99.90;;;;;;4980191;28;20678;-84
2023/01/20 03:17:08;;;;;;;41.63;22.20;;;1.80;99.90;;;;;;4997667;28;20185;-83
2023/01/20 03:19:34;;;;;;;40.93;22.63;;;2.10;99.90;;;;;;4979885;28;20179;-84
2023/01/20 03:22:00;;;;;;;38.30;22.43;;;2.00;99.90;;;;;;4980407;28;20671;-84
2023/01/20 03:24:28;;;;;;;37.80;20.83;;;1.90;99.90;;;;;;4979449;28;20262;-84
2023/01/20 03:26:54;;;;;;;41.57;22.10;;;1.90;99.90;;;;;;4979890;28;20214;-83
2023/01/20 03:29:20;;;;;;;35.40;22.10;;;1.80;99.90;;;;;;4979771;28;20171;-84
2023/01/20 03:31:50;;;;;;;36.57;20.57;;;1.70;99.90;;;;;;4980069;28;20588;-85
2023/01/20 03:34:19;;;;;;;37.43;21.57;;;1.70;99.90;;;;;;4980109;28;20278;-86
2023/01/20 03:36:46;;;;;;;45.60;23.43;;;1.80;99.90;;;;;;4998231;28;20151;-85
2023/01/20 03:39:12;;;;;;;42.53;21.60;;;1.90;99.90;;;;;;4980926;28;20229;-85
2023/01/20 03:42:04;;;;;;;37.40;21.80;;;2.00;99.90;;;;;;4983191;28;20546;-83
2023/01/20 03:44:58;;;;;;;39.17;21.17;;;1.90;99.90;;;;;;4997028;28;20183;-83
2023/01/20 03:47:26;;;;;;;37.43;22.33;;;1.90;99.90;;;;;;5003313;28;20215;-82
2023/01/20 03:50:07;;;;;;;42.10;23.03;;;1.90;99.90;;;;;;5020477;28;20186;-81
2023/01/20 03:52:43;;;;;;;38.87;21.57;;;2.10;99.90;;;;;;5003406;28;20241;-83
2023/01/20 03:55:42;;;;;;;37.43;22.00;;;2.10;99.90;;;;;;5004298;28;20209;-82
2023/01/20 03:58:19;;;;;;;37.80;21.33;;;2.00;99.90;;;;;;5020870;28;20187;-82
2023/01/20 04:00:49;;;;;;;39.43;20.63;;;2.10;99.90;;;;;;5019477;28;20205;-84
2023/01/20 04:03:24;;;;;;;36.03;22.43;;;2.00;99.90;;;;;;4988105;28;20194;-82
2023/01/20 04:05:50;;;;;;;39.17;22.40;;;2.00;99.90;;;;;;5015919;28;20213;-82
2023/01/20 04:08:29;;;;;;;33.40;20.00;;;2.00;99.90;;;;;;4982162;28;20239;-83
2023/01/20 04:11:05;;;;;;;32.40;18.93;;;2.00;99.90;;;;;;4980543;28;20175;-84
2023/01/20 04:13:37;;;;;;;34.10;19.80;;;2.00;99.90;;;;;;4980818;28;20170;-83
2023/01/20 04:16:08;;;;;;;34.87;20.50;;;2.00;99.90;;;;;;4979915;28;20182;-84
2023/01/20 04:18:40;;;;;;;33.83;18.60;;;2.00;99.90;;;;;;4979555;28;20648;-84
2023/01/20 04:21:07;;;;;;;33.07;18.60;;;2.10;99.90;;;;;;4983857;28;20178;-82
2023/01/20 04:23:41;;;;;;;34.33;19.93;;;1.90;99.90;;;;;;4987524;28;20175;-82
2023/01/20 04:26:09;;;;;;;32.57;20.40;;;1.90;99.90;;;;;;4979048;28;20210;-83
2023/01/20 04:28:35;;;;;;;37.40;21.17;;;2.00;99.90;;;;;;4978509;28;20175;-82
2023/01/20 04:31:01;;;;;;;32.93;19.53;;;2.10;99.90;;;;;;4978578;28;20597;-83
2023/01/20 04:33:26;;;;;;;33.87;19.43;;;2.00;99.90;;;;;;4996241;28;20626;-83
2023/01/20 04:35:52;;;;;;;30.07;19.60;;;1.90;99.90;;;;;;4978539;28;20186;-82
2023/01/20 04:38:18;;;;;;;35.30;20.60;;;1.90;99.90;;;;;;4996047;28;20253;-83
2023/01/20 04:40:45;;;;;;;30.63;20.60;;;2.10;99.90;;;;;;4979421;28;20171;-83
2023/01/20 04:43:11;;;;;;;37.80;20.10;;;1.90;99.90;;;;;;4979215;28;20185;-84
2023/01/20 04:45:37;;;;;;;40.50;21.27;;;2.00;99.90;;;;;;4978076;28;20319;-84
2023/01/20 04:48:07;;;;;;;33.13;20.37;;;2.10;99.90;;;;;;5002082;28;20686;-84
2023/01/20 04:50:38;;;;;;;33.27;20.10;;;2.10;99.90;;;;;;5003086;28;20167;-82
2023/01/20 04:53:04;;;;;;;37.23;21.53;;;2.10;99.90;;;;;;5002429;28;20179;-83
2023/01/20 04:55:32;;;;;;;33.63;21.30;;;2.10;99.90;;;;;;4999401;28;20179;-84
2023/01/20 04:58:11;;;;;;;39.00;20.93;;;2.00;99.90;;;;;;4998743;28;20168;-83
2023/01/20 05:00:37;;;;;;;32.93;19.33;;;2.00;99.90;;;;;;4977305;28;20639;-85
2023/01/20 05:03:04;;;;;;;37.60;20.40;;;1.90;99.90;;;;;;4993616;28;20206;-84
2023/01/20 05:05:30;;;;;;;36.17;20.73;;;1.90;99.90;;;;;;4995627;28;20701;-85
2023/01/20 05:07:56;;;;;;;41.67;22.27;;;1.90;99.90;;;;;;4981242;28;20182;-84
2023/01/20 05:10:21;;;;;;;34.33;20.53;;;1.90;99.90;;;;;;4978637;28;20171;-84
2023/01/20 05:12:47;;;;;;;36.67;20.43;;;1.90;99.90;;;;;;4994870;28;20536;-84
2023/01/20 05:15:13;;;;;;;34.83;20.57;;;1.90;99.90;;;;;;4977476;28;20183;-86
2023/01/20 05:17:38;;;;;;;36.23;20.37;;;1.90;99.90;;;;;;4978289;28;20179;-85
2023/01/20 05:20:04;;;;;;;41.70;22.00;;;1.80;99.90;;;;;;4978181;28;20182;-84
2023/01/20 05:22:32;;;;;;;35.77;20.17;;;1.90;99.90;;;;;;4976702;28;20179;-85
2023/01/20 05:24:58;;;;;;;37.30;22.03;;;1.90;99.90;;;;;;4980637;28;20202;-83
2023/01/20 05:27:24;;;;;;;34.37;21.33;;;1.90;99.90;;;;;;4986113;28;20241;-86
2023/01/20 05:29:51;;;;;;;39.50;21.53;;;1.90;99.90;;;;;;4978061;28;20178;-85
2023/01/20 05:32:17;;;;;;;39.37;22.43;;;1.90;99.90;;;;;;4995230;28;20171;-84
2023/01/20 05:34:43;;;;;;;39.63;21.53;;;1.90;99.90;;;;;;4997719;28;20175;-85
2023/01/20 05:37:09;;;;;;;43.70;22.73;;;2.00;99.90;;;;;;4997334;28;20187;-84
2023/01/20 05:39:35;;;;;;;38.77;22.33;;;1.90;99.90;;;;;;4980493;28;20199;-85
2023/01/20 05:42:01;;;;;;;34.23;20.57;;;1.90;99.90;;;;;;4997791;28;20578;-85
2023/01/20 05:44:26;;;;;;;34.47;20.27;;;1.90;99.90;;;;;;4996451;28;20258;-86
2023/01/20 05:46:52;;;;;;;37.27;22.63;;;2.00;99.90;;;;;;4978768;28;20688;-85
2023/01/20 05:49:18;;;;;;;35.07;21.23;;;1.80;99.90;;;;;;4986078;28;20174;-84
2023/01/20 05:51:43;;;;;;;36.33;20.80;;;1.90;99.90;;;;;;4988049;28;20631;-84
2023/01/20 05:54:09;;;;;;;37.63;22.23;;;1.80;99.90;;;;;;4980367;28;20175;-86
2023/01/20 05:56:38;;;;;;;39.87;22.27;;;1.80;99.90;;;;;;4982180;28;20175;-83
2023/01/20 05:59:05;;;;;;;34.87;21.80;;;1.80;99.90;;;;;;4980714;28;20627;-85
2023/01/20 06:01:30;;;;;;;35.07;20.77;;;1.90;99.90;;;;;;4991173;28;20171;-84
2023/01/20 06:03:56;;;;;;;36.93;21.50;;;1.80;99.90;;;;;;5001165;28;20177;-84
2023/01/20 06:06:22;;;;;;;37.20;20.20;;;1.90;99.90;;;;;;5001005;28;20230;-84
2023/01/20 06:08:51;;;;;;;36.83;22.00;;;1.90;99.90;;;;;;4980420;28;20179;-83
2023/01/20 06:11:19;;;;;;;33.83;21.17;;;1.80;99.90;;;;;;4981776;28;20159;-84
2023/01/20 06:13:47;;;;;;;35.30;21.10;;;1.90;99.90;;;;;;4997594;28;20226;-83
2023/01/20 06:16:15;;;;;;;33.83;20.63;;;1.90;99.90;;;;;;5016259;28;20250;-84
2023/01/20 06:18:41;;;;;;;35.40;21.33;;;1.90;99.90;;;;;;5000662;28;20194;-85
2023/01/20 06:21:06;;;;;;;35.60;21.20;;;1.90;99.90;;;;;;4997896;28;20210;-84
2023/01/20 06:23:32;;;;;;;34.03;21.47;;;1.90;99.90;;;;;;5000942;28;20179;-84
2023/01/20 06:26:07;;;;;;;38.23;21.50;;;1.90;99.90;;;;;;4978432;28;20221;-84
2023/01/20 06:28:34;;;;;;;36.60;22.77;;;1.90;99.90;;;;;;4997915;28;20545;-83
2023/01/20 06:31:13;;;;;;;37.43;22.13;;;1.90;99.90;;;;;;4998757;28;20171;-84
2023/01/20 06:33:39;;;;;;;36.53;21.97;;;1.90;99.90;;;;;;4981256;28;20218;-84
2023/01/20 06:36:07;;;;;;;36.17;21.03;;;1.80;99.90;;;;;;4997216;28;20190;-84
2023/01/20 06:38:34;;;;;;;33.90;20.27;;;1.80;99.90;;;;;;4978633;28;20270;-84
2023/01/20 06:41:02;;;;;;;35.03;21.80;;;1.80;99.90;;;;;;4978801;28;20214;-85
2023/01/20 06:43:29;;;;;;;34.27;21.67;;;1.80;99.90;;;;;;4980260;28;20635;-84
2023/01/20 06:46:03;;;;;;;39.30;20.67;;;1.70;99.90;;;;;;4981621;28;20278;-83
2023/01/20 06:48:33;;;;;;;33.97;20.13;;;1.70;99.90;;;;;;4982400;28;20214;-84
2023/01/20 06:51:17;;;;;;;38.93;22.03;;;1.80;99.90;;;;;;4979816;28;20198;-85
2023/01/20 06:53:43;;;;;;;36.97;21.33;;;1.80;99.90;;;;;;4977285;28;20186;-84
2023/01/20 06:56:10;;;;;;;35.90;21.17;;;1.90;99.90;;;;;;4978361;28;20195;-85
2023/01/20 06:58:37;;;;;;;39.07;22.53;;;1.80;99.90;;;;;;4983381;28;20155;-84
2023/01/20 07:01:09;;;;;;;35.03;20.33;;;1.80;99.90;;;;;;4993152;28;20164;-84
2023/01/20 07:03:35;;;;;;;35.47;22.97;;;1.80;99.90;;;;;;4983995;28;20194;-83
2023/01/20 07:06:32;;;;;;;32.40;20.43;;;1.80;99.90;;;;;;4977969;28;20211;-84
2023/01/20 07:08:58;;;;;;;35.13;22.33;;;2.00;99.90;;;;;;4960599;28;20203;-83
2023/01/20 07:11:26;;;;;;;34.70;21.47;;;2.00;99.90;;;;;;4981112;28;20628;-85
2023/01/20 07:13:52;;;;;;;36.93;22.43;;;2.10;99.90;;;;;;4960361;28;20654;-85
2023/01/20 07:16:18;;;;;;;35.63;20.83;;;1.90;99.90;;;;;;4962173;28;20179;-84
2023/01/20 07:18:47;;;;;;;35.00;20.67;;;1.80;99.90;;;;;;4961813;28;20190;-85
2023/01/20 07:21:13;;;;;;;36.67;21.50;;;2.00;99.90;;;;;;4962694;28;20215;-83
2023/01/20 07:23:39;;;;;;;35.33;20.77;;;2.10;99.90;;;;;;4960599;28;20186;-83
2023/01/20 07:26:15;;;;;;;36.67;20.80;;;2.00;99.90;;;;;;4962403;28;20253;-83
2023/01/20 07:28:42;;;;;;;35.17;21.27;;;2.00;99.90;;;;;;4960680;28;20868;-83
2023/01/20 07:31:18;;;;;;;36.83;21.47;;;1.90;99.90;;;;;;4958988;28;20187;-86
2023/01/20 07:33:43;;;;;;;35.67;20.53;;;2.00;99.90;;;;;;4962541;28;20534;-83
2023/01/20 07:36:11;;;;;;;33.50;19.30;;;2.10;99.90;;;;;;4980683;28;20180;-84
2023/01/20 07:38:37;;;;;;;30.00;18.83;;;2.10;99.90;;;;;;4964659;28;20168;-84
2023/01/20 07:41:06;;;;;;;33.73;20.30;;;1.90;99.90;;;;;;4966406;28;20178;-83
2023/01/20 07:43:32;;;;;;;37.27;20.60;;;1.90;99.90;;;;;;4980333;28;20196;-83
2023/01/20 07:45:59;;;;;;;31.37;18.57;;;1.90;99.90;;;;;;4965379;28;20211;-84
2023/01/20 07:48:29;;;;;;;29.63;17.80;;;1.90;99.90;;;;;;4995554;28;20154;-83
2023/01/20 07:51:00;;;;;;;35.77;19.30;;;2.00;99.90;;;;;;4982761;28;20176;-83
2023/01/20 07:53:29;;;;;;;30.17;18.90;;;2.00;99.90;;;;;;4983933;28;20176;-83
2023/01/20 07:56:04;;;;;;;30.77;18.43;;;2.00;99.90;;;;;;4983599;28;20214;-84
2023/01/20 07:58:34;;;;;;;33.83;19.77;;;2.10;99.90;;;;;;4983430;28;20156;-83
2023/01/20 08:01:14;;;;;;;31.67;19.33;;;2.10;99.90;;;;;;4984120;28;20159;-83
2023/01/20 08:03:41;;;;;;;30.70;18.57;;;2.20;99.90;;;;;;4975971;28;20174;-82
2023/01/20 08:06:11;;;;;;;34.73;20.00;;;2.20;99.90;;;;;;4967473;28;20292;-83
2023/01/20 08:08:37;;;;;;;31.40;18.20;;;2.20;99.90;;;;;;4977009;28;20260;-84
2023/01/20 08:11:07;;;;;;;28.17;18.60;;;2.20;99.90;;;;;;4979061;28;20208;-82
2023/01/20 08:13:33;;;;;;;27.73;16.93;;;2.10;99.90;;;;;;4962999;28;20647;-82
2023/01/20 08:16:04;;;;;;;28.30;18.67;;;2.10;99.90;;;;;;4975921;28;20247;-83
2023/01/20 08:18:31;;;;;;;25.43;17.63;;;2.20;99.90;;;;;;4966646;28;20172;-83
2023/01/20 08:21:05;;;;;;;26.00;17.77;;;2.20;99.90;;;;;;4973933;28;20168;-84
2023/01/20 08:24:23;;;;;;;30.20;19.27;;;2.10;99.90;;;;;;4972757;28;20164;-82
2023/01/20 08:26:51;;;;;;;26.57;17.53;;;2.30;99.90;;;;;;4980991;28;20278;-83
2023/01/20 08:29:18;;;;;;;24.43;16.57;;;2.30;99.90;;;;;;4962157;28;20199;-84
2023/01/20 08:31:43;;;;;;;24.27;18.00;;;2.00;99.90;;;;;;4978229;28;20168;-83
2023/01/20 08:34:09;;;;;;;35.27;18.03;;;2.20;99.90;;;;;;4961738;28;20201;-82
2023/01/20 08:36:37;;;;;;;24.93;16.83;;;2.40;99.90;;;;;;4981394;28;20163;-84
2023/01/20 08:39:07;;;;;;;28.23;16.90;;;2.40;99.90;;;;;;4976204;28;20194;-84
2023/01/20 08:41:38;;;;;;;24.10;16.53;;;2.40;99.90;;;;;;4968153;28;20175;-84
2023/01/20 08:44:05;;;;;;;24.17;16.77;;;2.40;99.90;;;;;;4961634;28;20164;-83
2023/01/20 08:46:31;;;;;;;22.77;15.47;;;2.60;99.90;;;;;;4960395;28;20610;-84
2023/01/20 08:48:57;;;;;;;24.43;15.47;;;2.40;99.90;;;;;;4959993;28;20179;-83
2023/01/20 08:51:27;;;;;;;22.83;16.23;;;2.40;99.90;;;;;;4977758;28;20207;-83
2023/01/20 08:53:52;;;;;;;22.23;15.07;;;2.30;99.90;;;;;;4960472;28;20623;-83
2023/01/20 08:56:18;;;;;;;24.03;15.87;;;2.30;99.90;;;;;;4959677;28;20223;-85
2023/01/20 08:58:45;;;;;;;25.60;16.67;;;2.30;99.90;;;;;;4977898;28;20206;-83
2023/01/20 09:01:18;;;;;;;25.27;15.90;;;2.30;99.90;;;;;;4963936;28;20276;-83
2023/01/20 09:03:44;;;;;;;24.10;16.27;;;2.50;99.90;;;;;;4963232;28;20190;-83
2023/01/20 09:06:10;;;;;;;22.57;15.93;;;2.50;99.90;;;;;;4961386;28;20762;-83
2023/01/20 09:08:37;;;;;;;29.87;17.77;;;2.40;99.90;;;;;;4949043;28;20176;-83
2023/01/20 09:11:06;;;;;;;25.70;16.23;;;2.50;99.90;;;;;;4974914;28;20171;-83
2023/01/20 09:13:32;;;;;;;23.60;16.07;;;2.60;99.90;;;;;;4981442;28;20187;-83
2023/01/20 09:15:58;;;;;;;24.23;15.47;;;2.70;99.90;;;;;;4982318;28;20163;-83
2023/01/20 09:18:25;;;;;;;26.00;16.90;;;2.60;99.90;;;;;;4971800;28;20527;-84
2023/01/20 09:20:57;;;;;;;24.57;16.03;;;2.70;99.90;;;;;;4963904;28;20227;-84
2023/01/20 09:23:25;;;;;;;28.23;15.50;;;2.60;99.90;;;;;;4960968;28;20194;-84
2023/01/20 09:25:51;;;;;;;23.50;15.70;;;2.60;99.90;;;;;;4978028;28;20664;-84
2023/01/20 09:28:19;;;;;;;25.40;16.33;;;2.80;99.90;;;;;;4960555;28;20183;-84
2023/01/20 09:30:44;;;;;;;25.90;16.87;;;2.80;99.90;;;;;;4960087;28;20186;-83
2023/01/20 09:33:11;;;;;;;22.17;15.63;;;2.70;99.90;;;;;;4960630;28;20266;-85
2023/01/20 09:35:37;;;;;;;23.73;16.03;;;3.00;99.90;;;;;;4959594;28;20556;-83
2023/01/20 09:44:20;;;;;;;25.23;14.23;;;2.90;99.90;;;;;;4977753;28;20191;-85
2023/01/20 09:47:22;;;;;;;21.33;14.37;;;2.90;99.90;;;;;;4960741;28;20696;-85
2023/01/20 09:53:43;;;;;;;20.37;14.20;;;2.90;99.90;;;;;;4977173;28;20220;-85
2023/01/20 09:56:24;;;;;;;20.73;13.80;;;2.90;99.90;;;;;;4961140;28;20200;-85
2023/01/20 09:59:10;;;;;;;17.83;12.20;;;3.00;99.90;;;;;;4972908;28;20163;-84
2023/01/20 10:01:39;;;;;;;19.67;13.57;;;3.20;99.90;;;;;;4961275;28;20221;-84
2023/01/20 10:04:09;;;;;;;21.70;13.43;;;3.30;99.90;;;;;;4961032;28;20212;-84
2023/01/20 10:07:03;;;;;;;20.60;13.57;;;3.10;99.90;;;;;;4980642;28;20203;-83
2023/01/20 10:09:40;;;;;;;20.87;12.50;;;3.20;99.90;;;;;;4987685;28;20178;-85
2023/01/20 10:12:09;;;;;;;26.00;12.67;;;3.20;99.90;;;;;;4988579;28;20214;-83
2023/01/20 10:14:41;;;;;;;19.97;11.50;;;3.20;99.90;;;;;;4978612;28;20187;-84
2023/01/20 10:17:31;;;;;;;20.83;12.43;;;3.10;99.90;;;;;;4973204;28;20248;-85
2023/01/20 10:20:33;;;;;;;20.27;12.20;;;3.20;99.90;;;;;;4961081;28;20179;-83
2023/01/20 10:23:04;;;;;;;22.23;12.33;;;3.30;99.90;;;;;;4961100;28;20190;-84
2023/01/20 10:25:40;;;;;;;23.10;12.50;;;3.40;99.90;;;;;;4961434;28;20176;-83
2023/01/20 10:28:25;;;;;;;19.23;11.93;;;3.40;99.90;;;;;;4960775;28;20325;-85
2023/01/20 10:30:51;;;;;;;18.10;12.37;;;3.40;99.90;;;;;;4962310;28;20545;-85
2023/01/20 10:33:32;;;;;;;22.10;12.50;;;3.60;99.90;;;;;;4966186;28;20194;-84
2023/01/20 10:35:59;;;;;;;18.20;12.93;;;3.70;99.90;;;;;;4976172;28;20868;-85
2023/01/20 10:38:53;;;;;;;18.50;11.60;;;3.60;99.90;;;;;;4950872;28;20251;-84
2023/01/20 10:41:43;;;;;;;19.10;11.17;;;3.70;99.90;;;;;;4979124;28;20164;-84
2023/01/20 10:44:15;;;;;;;19.47;13.03;;;3.80;99.90;;;;;;4960782;28;20171;-85
2023/01/20 10:47:20;;;;;;;19.57;11.53;;;3.70;99.90;;;;;;4971172;28;20231;-84
2023/01/20 10:50:10;;;;;;;17.77;11.53;;;3.90;99.90;;;;;;4981866;28;20234;-84
2023/01/20 10:53:10;;;;;;;24.60;12.03;;;3.90;99.90;;;;;;4979557;28;20172;-84
2023/01/20 10:55:44;;;;;;;24.57;12.50;;;3.90;99.90;;;;;;4967837;28;20206;-86
2023/01/20 10:58:26;;;;;;;18.57;11.00;;;4.00;99.90;;;;;;4981558;28;20647;-84
2023/01/20 11:01:03;;;;;;;21.13;12.37;;;3.90;99.90;;;;;;4965754;28;20176;-84
2023/01/20 11:03:34;;;;;;;18.87;11.80;;;4.10;99.90;;;;;;4963302;28;20179;-86
2023/01/20 11:06:02;;;;;;;15.23;11.07;;;4.10;99.90;;;;;;4965558;28;20200;-85
2023/01/20 11:08:29;;;;;;;15.17;10.17;;;4.10;99.90;;;;;;4964512;28;20188;-85
2023/01/20 11:11:08;;;;;;;18.43;10.93;;;4.20;99.90;;;;;;4964519;28;20175;-85
2023/01/20 11:13:33;;;;;;;19.23;11.13;;;4.30;99.90;;;;;;4963168;28;20191;-84
2023/01/20 11:16:03;;;;;;;16.47;10.50;;;4.50;99.90;;;;;;4963848;28;20363;-85
2023/01/20 11:18:31;;;;;;;20.80;10.60;;;4.50;99.90;;;;;;4993000;28;20180;-86
2023/01/20 11:21:10;;;;;;;21.73;10.93;;;4.50;99.90;;;;;;4982727;28;20159;-85
2023/01/20 11:23:51;;;;;;;16.47;9.57;;;4.50;99.90;;;;;;4979969;28;20231;-85
2023/01/20 11:26:37;;;;;;;14.87;9.60;;;4.70;99.90;;;;;;4973216;28;20270;-86
2023/01/20 11:29:09;;;;;;;14.90;8.90;;;4.70;99.90;;;;;;4968882;28;20180;-86
2023/01/20 11:31:55;;;;;;;16.47;9.30;;;4.80;99.90;;;;;;4982795;28;20176;-85
2023/01/20 11:34:28;;;;;;;18.77;9.33;;;4.70;99.90;;;;;;4989288;28;20207;-85
2023/01/20 11:37:03;;;;;;;15.50;9.47;;;4.80;99.90;;;;;;4978413;28;20168;-84
2023/01/20 11:39:32;;;;;;;12.03;8.90;;;4.80;99.90;;;;;;4972921;28;20722;-84
2023/01/20 11:42:21;;;;;;;17.73;9.47;;;4.80;99.90;;;;;;4971747;28;20179;-86
2023/01/20 11:44:56;;;;;;;15.27;10.10;;;4.90;99.90;;;;;;4985056;28;20194;-84
2023/01/20 11:47:35;;;;;;;15.00;8.93;;;5.10;99.90;;;;;;4979341;28;20214;-83
2023/01/20 11:50:06;;;;;;;14.43;8.27;;;5.00;99.90;;;;;;4983647;28;20156;-84
2023/01/20 11:52:36;;;;;;;15.50;9.27;;;5.10;99.90;;;;;;4984103;28;20190;-83
2023/01/20 11:55:16;;;;;;;18.00;9.63;;;5.10;99.90;;;;;;4979908;28;20185;-84
2023/01/20 11:57:56;;;;;;;18.27;9.13;;;5.20;99.90;;;;;;4975358;28;20202;-84
2023/01/20 12:00:26;;;;;;;22.57;8.93;;;5.10;99.90;;;;;;4978282;28;20176;-84
2023/01/20 12:03:30;;;;;;;21.10;8.93;;;5.20;99.90;;;;;;4995444;28;20242;-84
2023/01/20 12:06:02;;;;;;;13.93;8.17;;;5.40;99.90;;;;;;4913270;29;20213;-83
2023/01/20 12:08:49;;;;;;;14.27;8.30;;;5.40;99.50;;;;;;4981246;28;20179;-85
2023/01/20 12:11:26;;;;;;;13.17;8.70;;;5.30;99.90;;;;;;4982755;28;20172;-83
2023/01/20 12:14:44;;;;;;;23.07;10.77;;;5.30;99.90;;;;;;4982442;28;20200;-85
2023/01/20 12:17:33;;;;;;;13.70;9.47;;;5.50;99.90;;;;;;4951402;28;20259;-85
2023/01/20 12:19:59;;;;;;;15.13;9.23;;;5.70;99.90;;;;;;4962827;28;20180;-85
2023/01/20 12:22:42;;;;;;;14.27;8.63;;;5.80;99.60;;;;;;4962116;28;20216;-86
2023/01/20 12:25:24;;;;;;;13.43;8.43;;;5.70;99.70;;;;;;4960966;28;20184;-84
2023/01/20 12:28:02;;;;;;;11.37;8.17;;;5.80;99.90;;;;;;4962711;28;20310;-84
2023/01/20 12:30:45;;;;;;;15.67;8.63;;;5.90;99.70;;;;;;4979828;28;20179;-85
2023/01/20 12:33:25;;;;;;;13.27;8.70;;;6.00;99.00;;;;;;4961519;28;20179;-84
2023/01/20 12:36:11;;;;;;;13.47;7.50;;;6.20;98.00;;;;;;4977974;28;20183;-85
2023/01/20 12:39:08;;;;;;;16.90;7.37;;;6.10;96.00;;;;;;4961804;28;20171;-85
2023/01/20 12:41:52;;;;;;;13.20;7.27;;;6.20;96.60;;;;;;4948556;28;20643;-85
2023/01/20 12:45:04;;;;;;;12.73;7.33;;;6.30;96.00;;;;;;4979515;28;20171;-85
2023/01/20 12:47:48;;;;;;;14.30;7.27;;;6.50;95.50;;;;;;4980435;28;20214;-84
2023/01/20 12:50:53;;;;;;;11.27;6.60;;;6.60;94.00;;;;;;4973891;28;20188;-85
2023/01/20 12:53:40;;;;;;;15.27;6.37;;;6.50;93.20;;;;;;4971819;28;20180;-87
2023/01/20 12:56:28;;;;;;;12.83;6.40;;;6.50;93.60;;;;;;4961996;28;20250;-86
2023/01/20 12:58:55;;;;;;;10.73;5.03;;;6.50;92.00;;;;;;4979919;28;20266;-86
2023/01/20 13:01:56;;;;;;;10.90;6.27;;;6.40;92.80;;;;;;4960738;28;20167;-84
2023/01/20 13:04:43;;;;;;;12.10;5.97;;;6.30;93.10;;;;;;4982364;28;20162;-86
2023/01/20 13:07:21;;;;;;;12.40;6.67;;;6.30;93.90;;;;;;4970657;28;20254;-86
2023/01/20 13:10:10;;;;;;;11.13;6.07;;;6.40;94.30;;;;;;4979514;28;20171;-86
2023/01/20 13:13:11;;;;;;;13.37;6.13;;;6.40;93.50;;;;;;4974230;28;20244;-85
2023/01/20 13:15:45;;;;;;;9.10;6.20;;;6.40;93.90;;;;;;4962148;28;20172;-85
2023/01/20 13:18:35;;;;;;;11.67;6.33;;;6.20;94.40;;;;;;4961738;28;20195;-84